createdAt,value
2018-02-22T00:00:56.838Z,0
2018-02-22T00:01:56.599Z,0
2018-02-22T00:02:56.794Z,0
2018-02-22T00:03:56.800Z,0
2018-02-22T00:04:56.510Z,0
2018-02-22T00:05:56.765Z,0
2018-02-22T02:23:28.494Z,0
2018-02-22T02:24:23.147Z,0
2018-02-22T02:25:28.596Z,0
2018-02-22T02:26:24.100Z,0
2018-02-22T02:27:29.338Z,0
2018-02-22T02:28:23.110Z,0
2018-02-22T02:29:23.237Z,0
2018-02-22T02:30:22.677Z,0
2018-02-22T02:31:22.939Z,0
2018-02-22T02:32:22.916Z,0
2018-02-22T02:33:22.898Z,0
2018-02-22T02:34:22.871Z,0
2018-02-22T02:35:22.871Z,0
2018-02-22T02:36:22.853Z,0
2018-02-22T02:37:22.840Z,0
2018-02-22T02:38:22.801Z,0
2018-02-22T02:39:22.786Z,0
2018-02-22T02:40:22.496Z,0
2018-02-22T02:41:22.237Z,0
2018-02-22T02:42:22.491Z,0
2018-02-22T02:43:22.732Z,0
2018-02-22T02:44:22.688Z,0
2018-02-22T02:45:22.418Z,0
2018-02-22T02:46:22.679Z,0
2018-02-22T02:47:22.666Z,0
2018-02-22T02:48:22.637Z,0
2018-02-22T02:49:22.642Z,0
2018-02-22T02:50:22.604Z,0
2018-02-22T02:51:22.605Z,0
2018-02-22T02:52:22.305Z,0
2018-02-22T02:53:22.561Z,0
2018-02-22T02:54:22.593Z,0
2018-02-22T02:55:22.528Z,0
2018-02-22T02:56:22.507Z,0
2018-02-22T02:57:22.509Z,0
2018-02-22T02:58:22.470Z,0
2018-02-22T02:59:22.208Z,0
2018-02-22T03:00:22.424Z,0
2018-02-22T03:01:22.422Z,0
2018-02-22T03:02:22.166Z,0
2018-02-22T03:03:22.388Z,0
2018-02-22T03:04:22.361Z,0
2018-02-22T03:05:22.386Z,0
2018-02-22T03:06:22.356Z,0
2018-02-22T03:07:22.349Z,0
2018-02-22T03:08:22.312Z,0
2018-02-22T03:09:22.293Z,0
2018-02-22T03:10:21.993Z,0
2018-02-22T03:11:22.275Z,0
2018-02-22T03:12:21.978Z,0
2018-02-22T03:13:22.260Z,0
2018-02-22T03:14:22.207Z,0
2018-02-22T03:15:22.201Z,0
2018-02-22T03:16:22.157Z,0
2018-02-22T03:17:22.164Z,0
2018-02-22T03:18:22.142Z,0
2018-02-22T03:19:22.153Z,0
2018-02-22T03:20:21.868Z,0
2018-02-22T03:21:22.088Z,0
2018-02-22T03:22:22.076Z,0
2018-02-22T03:23:22.043Z,0
2018-02-22T03:24:22.074Z,0
2018-02-22T03:25:21.768Z,0
2018-02-22T03:26:22.002Z,0
2018-02-22T03:27:22.003Z,0
2018-02-22T03:28:21.969Z,0
2018-02-22T03:29:21.982Z,0
2018-02-22T03:30:21.702Z,0
2018-02-22T03:31:21.954Z,0
2018-02-22T03:32:21.646Z,0
2018-02-22T03:33:21.898Z,0
2018-02-22T03:34:21.630Z,0
2018-02-22T03:35:21.884Z,0
2018-02-22T03:36:21.600Z,0
2018-02-22T03:37:21.318Z,0
2018-02-22T03:38:21.837Z,0
2018-02-22T03:39:21.780Z,0
2018-02-22T03:40:21.550Z,0
2018-02-22T03:41:21.762Z,0
2018-02-22T03:42:21.767Z,0
2018-02-22T03:43:21.740Z,0
2018-02-22T03:44:21.746Z,0
2018-02-22T03:45:21.711Z,0
2018-02-22T03:46:21.712Z,0
2018-02-22T03:47:21.656Z,0
2018-02-22T03:48:21.691Z,0
2018-02-22T03:49:21.659Z,0
2018-02-22T03:50:21.630Z,0
2018-02-22T03:51:21.608Z,0
2018-02-22T03:52:21.347Z,0
2018-02-22T03:53:21.579Z,0
2018-02-22T03:54:21.572Z,0
2018-02-22T03:55:21.276Z,0
2018-02-22T03:56:21.537Z,0
2018-02-22T03:57:21.513Z,0
2018-02-22T03:58:21.514Z,0
2018-02-22T03:59:21.227Z,0
2018-02-22T04:00:21.520Z,0
2018-02-22T04:01:21.439Z,0
2018-02-22T04:02:21.440Z,0
2018-02-22T04:03:21.403Z,0
2018-02-22T04:04:21.414Z,0
2018-02-22T04:05:21.386Z,0
2018-02-22T04:06:21.368Z,0
2018-02-22T04:07:21.337Z,0
2018-02-22T04:08:21.315Z,0
2018-02-22T04:09:21.340Z,0
2018-02-22T04:10:21.300Z,0
2018-02-22T04:11:21.312Z,0
2018-02-22T04:12:21.257Z,0
2018-02-22T04:13:21.327Z,0
2018-02-22T04:14:21.213Z,0
2018-02-22T04:15:21.226Z,0
2018-02-22T04:16:21.175Z,0
2018-02-22T04:17:21.206Z,0
2018-02-22T04:18:21.289Z,0
2018-02-22T04:19:21.149Z,0
2018-02-22T04:20:20.905Z,0
2018-02-22T04:21:21.129Z,0
2018-02-22T04:22:21.117Z,0
2018-02-22T04:23:21.096Z,0
2018-02-22T04:24:20.808Z,0
2018-02-22T04:25:21.073Z,0
2018-02-22T04:26:21.042Z,0
2018-02-22T04:27:21.046Z,0
2018-02-22T04:28:20.990Z,0
2018-02-22T04:29:20.738Z,0
2018-02-22T04:30:20.949Z,0
2018-02-22T04:31:20.979Z,0
2018-02-22T04:32:20.918Z,0
2018-02-22T04:33:20.958Z,0
2018-02-22T04:34:20.640Z,0
2018-02-22T04:35:20.630Z,0
2018-02-22T04:36:20.601Z,0
2018-02-22T04:37:20.850Z,0
2018-02-22T04:38:20.573Z,0
2018-02-22T04:39:21.079Z,0
2018-02-22T04:40:20.821Z,0
2018-02-22T04:41:20.790Z,0
2018-02-22T04:42:20.768Z,0
2018-02-22T04:43:20.772Z,0
2018-02-22T04:44:20.719Z,0
2018-02-22T04:45:20.735Z,0
2018-02-22T04:46:20.692Z,0
2018-02-22T04:47:20.696Z,0
2018-02-22T04:48:20.395Z,0
2018-02-22T04:49:20.159Z,0
2018-02-22T04:50:20.644Z,0
2018-02-22T04:51:20.361Z,0
2018-02-22T04:52:20.580Z,0
2018-02-22T04:53:20.575Z,0
2018-02-22T04:54:20.576Z,0
2018-02-22T04:55:20.568Z,0
2018-02-22T04:56:20.545Z,0
2018-02-22T04:57:20.261Z,0
2018-02-22T04:58:20.240Z,0
2018-02-22T04:59:20.451Z,0
2018-02-22T05:00:20.491Z,0
2018-02-22T05:01:20.174Z,0
2018-02-22T05:02:20.192Z,0
2018-02-22T05:03:20.410Z,0
2018-02-22T05:04:20.206Z,0
2018-02-22T05:05:20.392Z,0
2018-02-22T05:06:20.367Z,0
2018-02-22T05:07:20.347Z,0
2018-02-22T05:08:20.345Z,0
2018-02-22T05:09:20.048Z,0
2018-02-22T05:10:20.557Z,0
2018-02-22T05:11:20.291Z,0
2018-02-22T05:12:20.282Z,0
2018-02-22T05:13:20.243Z,0
2018-02-22T05:14:20.380Z,0
2018-02-22T05:15:20.194Z,0
2018-02-22T05:16:20.212Z,0
2018-02-22T05:17:19.932Z,0
2018-02-22T05:18:19.935Z,0
2018-02-22T05:19:20.131Z,0
2018-02-22T05:20:19.878Z,0
2018-02-22T05:21:19.851Z,0
2018-02-22T05:22:20.109Z,0
2018-02-22T05:23:20.079Z,0
2018-02-22T05:24:20.079Z,0
2018-02-22T05:25:20.037Z,0
2018-02-22T05:26:20.040Z,0
2018-02-22T05:27:19.530Z,0
2018-02-22T05:28:19.730Z,0
2018-02-22T05:29:20.130Z,0
2018-02-22T05:30:19.956Z,0
2018-02-22T05:31:19.948Z,0
2018-02-22T05:32:19.928Z,0
2018-02-22T05:33:19.925Z,0
2018-02-22T05:34:20.280Z,0
2018-02-22T05:35:19.594Z,0
2018-02-22T05:36:19.875Z,0
2018-02-22T05:37:19.556Z,0
2018-02-22T05:38:19.822Z,0
2018-02-22T05:39:19.793Z,0
2018-02-22T05:40:19.815Z,0
2018-02-22T05:41:20.062Z,0
2018-02-22T05:42:19.755Z,0
2018-02-22T05:43:19.726Z,0
2018-02-22T05:44:19.441Z,0
2018-02-22T05:45:19.708Z,0
2018-02-22T05:46:19.693Z,0
2018-02-22T05:47:19.428Z,0
2018-02-22T05:48:19.361Z,0
2018-02-22T05:49:19.628Z,0
2018-02-22T05:50:19.592Z,0
2018-02-22T05:51:19.343Z,0
2018-02-22T05:52:19.542Z,0
2018-02-22T05:53:19.316Z,0
2018-02-22T05:54:19.011Z,0
2018-02-22T05:55:19.592Z,0
2018-02-22T05:56:19.504Z,0
2018-02-22T05:57:19.226Z,5
2018-02-22T05:58:19.459Z,5
2018-02-22T05:59:19.458Z,5
2018-02-22T06:00:19.411Z,5
2018-02-22T06:01:19.427Z,5
2018-02-22T06:02:19.396Z,5
2018-02-22T06:03:19.404Z,10
2018-02-22T06:04:19.354Z,10
2018-02-22T06:05:19.360Z,10
2018-02-22T06:06:19.040Z,10
2018-02-22T06:07:19.323Z,10
2018-02-22T06:08:19.261Z,15
2018-02-22T06:09:19.027Z,15
2018-02-22T06:10:19.003Z,15
2018-02-22T06:11:19.287Z,15
2018-02-22T06:12:18.931Z,20
2018-02-22T06:13:19.195Z,20
2018-02-22T06:14:19.217Z,20
2018-02-22T06:15:19.159Z,25
2018-02-22T06:16:19.120Z,25
2018-02-22T06:17:18.880Z,25
2018-02-22T06:18:18.866Z,30
2018-02-22T06:19:19.149Z,30
2018-02-22T06:20:19.054Z,30
2018-02-22T06:21:19.060Z,35
2018-02-22T06:22:19.029Z,35
2018-02-22T06:23:19.077Z,35
2018-02-22T06:24:18.724Z,40
2018-02-22T06:25:19.002Z,40
2018-02-22T06:26:18.963Z,45
2018-02-22T06:27:18.932Z,45
2018-02-22T06:28:18.955Z,45
2018-02-22T06:29:18.670Z,50
2018-02-22T06:30:18.901Z,50
2018-02-22T06:31:18.878Z,55
2018-02-22T06:32:18.579Z,55
2018-02-22T06:33:18.324Z,55
2018-02-22T06:34:18.580Z,60
2018-02-22T06:35:18.568Z,60
2018-02-22T06:36:18.843Z,65
2018-02-22T06:37:18.788Z,70
2018-02-22T06:38:18.735Z,75
2018-02-22T06:39:18.754Z,80
2018-02-22T06:40:18.715Z,85
2018-02-22T06:41:18.771Z,90
2018-02-22T06:42:18.684Z,90
2018-02-22T06:43:18.426Z,95
2018-02-22T06:44:18.616Z,100
2018-02-22T06:45:18.637Z,100
2018-02-22T06:46:18.354Z,105
2018-02-22T06:47:18.604Z,110
2018-02-22T06:48:18.553Z,115
2018-02-22T06:49:18.542Z,115
2018-02-22T06:50:18.537Z,120
2018-02-22T06:51:18.522Z,125
2018-02-22T06:52:18.241Z,135
2018-02-22T06:53:18.481Z,135
2018-02-22T06:54:18.213Z,140
2018-02-22T06:55:18.466Z,145
2018-02-22T06:56:18.431Z,150
2018-02-22T06:57:18.415Z,155
2018-02-22T06:58:18.389Z,160
2018-02-22T06:59:18.368Z,160
2018-02-22T07:00:18.362Z,165
2018-02-22T07:01:18.368Z,175
2018-02-22T07:02:18.084Z,180
2018-02-22T07:03:18.055Z,180
2018-02-22T07:04:18.318Z,190
2018-02-22T07:05:18.336Z,195
2018-02-22T07:06:18.284Z,200
2018-02-22T07:07:18.027Z,205
2018-02-22T07:08:18.265Z,205
2018-02-22T07:09:17.966Z,210
2018-02-22T07:10:18.233Z,215
2018-02-22T07:11:18.193Z,220
2018-02-22T07:12:17.934Z,225
2018-02-22T07:13:18.164Z,225
2018-02-22T07:14:18.175Z,235
2018-02-22T07:15:18.126Z,235
2018-02-22T07:16:18.134Z,240
2018-02-22T07:17:18.110Z,245
2018-02-22T07:18:17.834Z,250
2018-02-22T07:19:18.109Z,245
2018-02-22T07:20:18.074Z,230
2018-02-22T07:21:17.801Z,230
2018-02-22T07:22:18.060Z,235
2018-02-22T07:23:26.371Z,235
2018-02-22T07:24:17.995Z,240
2018-02-22T07:25:18.031Z,245
2018-02-22T07:26:18.003Z,245
2018-02-22T07:27:17.955Z,250
2018-02-22T07:28:17.977Z,255
2018-02-22T07:29:17.695Z,260
2018-02-22T07:30:17.912Z,265
2018-02-22T07:31:17.652Z,270
2018-02-22T07:32:17.924Z,275
2018-02-22T07:33:17.884Z,280
2018-02-22T07:34:18.007Z,285
2018-02-22T07:35:17.603Z,280
2018-02-22T07:36:17.618Z,285
2018-02-22T07:37:17.847Z,290
2018-02-22T07:38:17.604Z,295
2018-02-22T07:39:17.601Z,305
2018-02-22T07:40:17.786Z,305
2018-02-22T07:41:17.842Z,310
2018-02-22T07:42:17.808Z,315
2018-02-22T07:43:17.623Z,320
2018-02-22T07:44:17.737Z,335
2018-02-22T07:45:17.742Z,340
2018-02-22T07:46:17.729Z,340
2018-02-22T07:47:17.713Z,340
2018-02-22T07:48:17.683Z,340
2018-02-22T07:49:17.685Z,345
2018-02-22T07:50:17.664Z,345
2018-02-22T07:51:17.375Z,350
2018-02-22T07:52:17.633Z,360
2018-02-22T07:53:17.631Z,335
2018-02-22T07:54:17.352Z,260
2018-02-22T07:55:17.321Z,220
2018-02-22T07:56:17.065Z,245
2018-02-22T07:57:17.341Z,280
2018-02-22T07:58:17.302Z,295
2018-02-22T07:59:17.541Z,300
2018-02-22T08:00:17.664Z,310
2018-02-22T08:01:17.504Z,310
2018-02-22T08:02:17.235Z,320
2018-02-22T08:03:17.224Z,330
2018-02-22T08:04:17.483Z,340
2018-02-22T08:05:17.238Z,345
2018-02-22T08:06:17.545Z,340
2018-02-22T08:07:17.429Z,335
2018-02-22T08:08:17.431Z,325
2018-02-22T08:09:17.400Z,315
2018-02-22T08:10:17.413Z,305
2018-02-22T08:11:17.411Z,295
2018-02-22T08:12:17.381Z,295
2018-02-22T08:13:17.080Z,290
2018-02-22T08:14:17.089Z,285
2018-02-22T08:15:17.321Z,270
2018-02-22T08:16:17.052Z,255
2018-02-22T08:17:17.531Z,235
2018-02-22T08:18:17.293Z,235
2018-02-22T08:19:16.993Z,240
2018-02-22T08:20:16.993Z,250
2018-02-22T08:21:17.256Z,260
2018-02-22T08:22:17.235Z,260
2018-02-22T08:23:17.404Z,265
2018-02-22T08:24:17.180Z,270
2018-02-22T08:25:16.939Z,275
2018-02-22T08:26:17.174Z,280
2018-02-22T08:27:16.910Z,280
2018-02-22T08:28:16.980Z,280
2018-02-22T08:29:16.881Z,275
2018-02-22T08:30:17.116Z,280
2018-02-22T08:31:17.120Z,280
2018-02-22T08:32:16.590Z,275
2018-02-22T08:33:17.100Z,270
2018-02-22T08:34:17.063Z,255
2018-02-22T08:35:17.042Z,240
2018-02-22T08:36:16.829Z,225
2018-02-22T08:37:16.784Z,215
2018-02-22T08:38:16.793Z,210
2018-02-22T08:39:16.772Z,205
2018-02-22T08:40:16.445Z,205
2018-02-22T08:41:16.969Z,200
2018-02-22T08:42:16.948Z,200
2018-02-22T08:43:16.676Z,195
2018-02-22T08:44:16.408Z,195
2018-02-22T08:45:16.662Z,195
2018-02-22T08:46:16.622Z,195
2018-02-22T08:47:16.875Z,195
2018-02-22T08:48:16.896Z,195
2018-02-22T08:49:17.078Z,195
2018-02-22T08:50:16.598Z,195
2018-02-22T08:51:16.305Z,195
2018-02-22T08:52:16.302Z,195
2018-02-22T08:53:16.844Z,195
2018-02-22T08:54:16.569Z,195
2018-02-22T08:55:16.521Z,195
2018-02-22T08:56:16.499Z,195
2018-02-22T08:57:16.826Z,195
2018-02-22T08:58:16.769Z,195
2018-02-22T08:59:16.738Z,195
2018-02-22T09:00:16.182Z,195
2018-02-22T09:01:16.692Z,195
2018-02-22T09:02:16.486Z,195
2018-02-22T09:03:16.688Z,195
2018-02-22T09:04:16.670Z,190
2018-02-22T09:05:16.664Z,190
2018-02-22T09:06:16.135Z,190
2018-02-22T09:07:16.580Z,190
2018-02-22T09:08:16.314Z,190
2018-02-22T09:09:16.559Z,190
2018-02-22T09:10:16.557Z,190
2018-02-22T09:11:16.535Z,190
2018-02-22T09:12:16.514Z,195
2018-02-22T09:13:16.237Z,190
2018-02-22T09:14:16.226Z,190
2018-02-22T09:15:16.212Z,190
2018-02-22T09:16:16.207Z,190
2018-02-22T09:17:16.461Z,195
2018-02-22T09:18:16.463Z,190
2018-02-22T09:19:16.416Z,190
2018-02-22T09:20:16.395Z,190
2018-02-22T09:21:16.387Z,190
2018-02-22T09:22:16.373Z,190
2018-02-22T09:23:16.357Z,190
2018-02-22T09:24:16.325Z,190
2018-02-22T09:25:16.333Z,190
2018-02-22T09:26:16.323Z,190
2018-02-22T09:27:16.300Z,190
2018-02-22T09:28:16.029Z,190
2018-02-22T09:29:16.358Z,190
2018-02-22T09:30:16.258Z,185
2018-02-22T09:31:15.981Z,190
2018-02-22T09:32:16.220Z,185
2018-02-22T09:33:16.220Z,185
2018-02-22T09:34:15.683Z,185
2018-02-22T09:35:16.456Z,185
2018-02-22T09:36:16.158Z,185
2018-02-22T09:37:16.156Z,185
2018-02-22T09:38:16.180Z,185
2018-02-22T09:39:16.139Z,185
2018-02-22T09:40:15.868Z,185
2018-02-22T09:41:15.581Z,185
2018-02-22T09:42:16.090Z,185
2018-02-22T09:43:15.827Z,185
2018-02-22T09:44:16.053Z,185
2018-02-22T09:45:15.777Z,185
2018-02-22T09:46:15.791Z,185
2018-02-22T09:47:15.784Z,185
2018-02-22T09:48:15.977Z,185
2018-02-22T09:49:16.005Z,185
2018-02-22T09:50:16.269Z,185
2018-02-22T09:51:15.461Z,185
2018-02-22T09:52:15.963Z,185
2018-02-22T09:53:15.671Z,185
2018-02-22T09:54:15.926Z,185
2018-02-22T09:55:15.889Z,185
2018-02-22T09:56:15.391Z,185
2018-02-22T09:57:15.869Z,180
2018-02-22T09:58:15.841Z,180
2018-02-22T09:59:15.828Z,180
2018-02-22T10:00:15.576Z,180
2018-02-22T10:01:15.825Z,180
2018-02-22T10:02:15.798Z,180
2018-02-22T10:03:15.787Z,180
2018-02-22T10:04:15.494Z,180
2018-02-22T10:05:15.761Z,180
2018-02-22T10:06:15.774Z,180
2018-02-22T10:07:15.919Z,175
2018-02-22T10:08:15.461Z,175
2018-02-22T10:09:15.422Z,175
2018-02-22T10:10:15.680Z,175
2018-02-22T10:11:15.408Z,175
2018-02-22T10:12:15.392Z,180
2018-02-22T10:13:15.462Z,175
2018-02-22T10:14:15.650Z,175
2018-02-22T10:15:15.600Z,175
2018-02-22T10:16:15.639Z,175
2018-02-22T10:17:15.595Z,175
2018-02-22T10:18:15.582Z,175
2018-02-22T10:19:15.293Z,175
2018-02-22T10:20:15.530Z,175
2018-02-22T10:21:15.514Z,180
2018-02-22T10:22:15.286Z,180
2018-02-22T10:23:15.259Z,180
2018-02-22T10:24:15.479Z,180
2018-02-22T10:25:14.930Z,180
2018-02-22T10:26:14.935Z,180
2018-02-22T10:27:15.222Z,180
2018-02-22T10:28:15.421Z,180
2018-02-22T10:29:15.397Z,180
2018-02-22T10:30:14.868Z,180
2018-02-22T10:31:14.842Z,180
2018-02-22T10:32:14.597Z,180
2018-02-22T10:33:15.109Z,180
2018-02-22T10:34:15.348Z,180
2018-02-22T10:35:15.325Z,175
2018-02-22T10:36:15.091Z,175
2018-02-22T10:37:15.137Z,175
2018-02-22T10:38:15.279Z,175
2018-02-22T10:39:15.085Z,180
2018-02-22T10:40:14.980Z,180
2018-02-22T10:41:14.961Z,185
2018-02-22T10:42:15.225Z,190
2018-02-22T10:43:15.222Z,200
2018-02-22T10:44:14.940Z,205
2018-02-22T10:45:15.168Z,210
2018-02-22T10:46:14.979Z,200
2018-02-22T10:47:14.885Z,200
2018-02-22T10:48:15.140Z,195
2018-02-22T10:49:15.174Z,195
2018-02-22T10:50:15.208Z,195
2018-02-22T10:51:15.067Z,195
2018-02-22T10:52:15.077Z,190
2018-02-22T10:53:15.065Z,180
2018-02-22T10:54:14.530Z,180
2018-02-22T10:55:14.508Z,180
2018-02-22T10:56:14.812Z,180
2018-02-22T10:57:15.002Z,175
2018-02-22T10:58:14.780Z,175
2018-02-22T10:59:14.733Z,175
2018-02-22T11:00:14.987Z,175
2018-02-22T11:01:14.706Z,175
2018-02-22T11:02:14.681Z,180
2018-02-22T11:03:15.074Z,180
2018-02-22T11:04:14.651Z,180
2018-02-22T11:05:14.644Z,180
2018-02-22T11:06:14.883Z,180
2018-02-22T11:07:14.855Z,180
2018-02-22T11:08:14.603Z,180
2018-02-22T11:09:14.845Z,175
2018-02-22T11:10:14.819Z,175
2018-02-22T11:11:14.818Z,175
2018-02-22T11:12:14.803Z,175
2018-02-22T11:13:14.800Z,175
2018-02-22T11:14:14.778Z,175
2018-02-22T11:15:14.498Z,175
2018-02-22T11:16:14.465Z,180
2018-02-22T11:17:14.473Z,185
2018-02-22T11:18:14.467Z,195
2018-02-22T11:19:14.684Z,195
2018-02-22T11:20:14.414Z,200
2018-02-22T11:21:14.409Z,215
2018-02-22T11:22:14.647Z,225
2018-02-22T11:23:14.627Z,230
2018-02-22T11:24:14.366Z,240
2018-02-22T11:25:14.604Z,250
2018-02-22T11:26:14.359Z,260
2018-02-22T11:27:14.590Z,265
2018-02-22T11:28:14.572Z,275
2018-02-22T11:29:14.608Z,275
2018-02-22T11:30:14.290Z,270
2018-02-22T11:31:14.273Z,270
2018-02-22T11:32:14.518Z,280
2018-02-22T11:33:14.557Z,285
2018-02-22T11:34:14.493Z,290
2018-02-22T11:35:14.504Z,290
2018-02-22T11:36:14.201Z,285
2018-02-22T11:37:14.194Z,285
2018-02-22T11:38:14.183Z,285
2018-02-22T11:39:14.414Z,285
2018-02-22T11:40:14.144Z,285
2018-02-22T11:41:14.156Z,290
2018-02-22T11:42:14.381Z,280
2018-02-22T11:43:14.388Z,270
2018-02-22T11:44:14.470Z,265
2018-02-22T11:45:14.353Z,260
2018-02-22T11:46:14.084Z,250
2018-02-22T11:47:14.335Z,250
2018-02-22T11:48:13.815Z,250
2018-02-22T11:49:14.302Z,245
2018-02-22T11:50:14.297Z,240
2018-02-22T11:51:14.271Z,235
2018-02-22T11:52:14.006Z,230
2018-02-22T11:53:14.266Z,220
2018-02-22T11:54:13.974Z,210
2018-02-22T11:55:14.487Z,210
2018-02-22T11:56:13.987Z,210
2018-02-22T11:57:13.445Z,215
2018-02-22T11:58:14.252Z,215
2018-02-22T11:59:14.189Z,215
2018-02-22T12:00:13.928Z,215
2018-02-22T12:01:13.908Z,220
2018-02-22T12:02:14.133Z,230
2018-02-22T12:03:13.886Z,240
2018-02-22T12:04:14.187Z,255
2018-02-22T12:05:14.422Z,260
2018-02-22T12:06:13.601Z,260
2018-02-22T12:07:13.829Z,260
2018-02-22T12:08:13.816Z,270
2018-02-22T12:09:13.798Z,270
2018-02-22T12:10:14.084Z,270
2018-02-22T12:11:13.267Z,270
2018-02-22T12:12:13.760Z,270
2018-02-22T12:13:14.045Z,275
2018-02-22T12:14:13.787Z,275
2018-02-22T12:15:13.760Z,285
2018-02-22T12:16:14.007Z,290
2018-02-22T12:17:13.729Z,285
2018-02-22T12:18:13.948Z,280
2018-02-22T12:19:13.683Z,270
2018-02-22T12:20:13.657Z,260
2018-02-22T12:21:13.913Z,240
2018-02-22T12:22:13.905Z,230
2018-02-22T12:23:13.632Z,225
2018-02-22T12:24:13.856Z,220
2018-02-22T12:25:13.704Z,215
2018-02-22T12:26:13.856Z,210
2018-02-22T12:27:13.338Z,205
2018-02-22T12:28:13.815Z,205
2018-02-22T12:29:13.826Z,205
2018-02-22T12:30:13.796Z,205
2018-02-22T12:31:13.529Z,215
2018-02-22T12:32:13.533Z,215
2018-02-22T12:33:13.493Z,215
2018-02-22T12:34:13.754Z,215
2018-02-22T12:35:13.755Z,225
2018-02-22T12:36:13.194Z,225
2018-02-22T12:37:13.436Z,225
2018-02-22T12:38:13.763Z,230
2018-02-22T12:39:13.681Z,230
2018-02-22T12:40:13.423Z,220
2018-02-22T12:41:13.660Z,210
2018-02-22T12:42:13.658Z,205
2018-02-22T12:43:14.052Z,200
2018-02-22T12:44:13.347Z,200
2018-02-22T12:45:13.611Z,205
2018-02-22T12:46:12.827Z,200
2018-02-22T12:47:13.325Z,200
2018-02-22T12:48:13.600Z,195
2018-02-22T12:49:13.280Z,195
2018-02-22T12:50:13.275Z,190
2018-02-22T12:51:13.261Z,190
2018-02-22T12:52:13.285Z,190
2018-02-22T12:53:13.516Z,195
2018-02-22T12:54:13.224Z,195
2018-02-22T12:55:13.488Z,195
2018-02-22T12:56:13.221Z,195
2018-02-22T12:57:13.465Z,195
2018-02-22T12:58:13.187Z,195
2018-02-22T12:59:13.416Z,190
2018-02-22T13:00:13.422Z,185
2018-02-22T13:01:13.137Z,180
2018-02-22T13:02:12.873Z,180
2018-02-22T13:03:13.390Z,180
2018-02-22T13:04:13.382Z,185
2018-02-22T13:05:13.348Z,185
2018-02-22T13:06:12.839Z,190
2018-02-22T13:07:13.323Z,195
2018-02-22T13:08:13.168Z,210
2018-02-22T13:09:13.336Z,225
2018-02-22T13:10:13.049Z,230
2018-02-22T13:11:13.278Z,235
2018-02-22T13:12:13.015Z,240
2018-02-22T13:13:13.249Z,240
2018-02-22T13:14:13.233Z,250
2018-02-22T13:15:13.243Z,260
2018-02-22T13:16:12.697Z,255
2018-02-22T13:17:13.211Z,255
2018-02-22T13:18:13.207Z,265
2018-02-22T13:19:13.196Z,270
2018-02-22T13:20:13.173Z,260
2018-02-22T13:21:12.891Z,240
2018-02-22T13:22:13.155Z,225
2018-02-22T13:23:13.237Z,215
2018-02-22T13:24:12.877Z,215
2018-02-22T13:25:12.849Z,220
2018-02-22T13:26:13.096Z,220
2018-02-22T13:27:12.831Z,225
2018-02-22T13:28:13.357Z,215
2018-02-22T13:29:12.784Z,210
2018-02-22T13:30:12.552Z,220
2018-02-22T13:31:13.249Z,215
2018-02-22T13:32:13.082Z,210
2018-02-22T13:33:12.996Z,200
2018-02-22T13:34:12.990Z,195
2018-02-22T13:35:12.969Z,195
2018-02-22T13:36:12.950Z,195
2018-02-22T13:37:12.474Z,195
2018-02-22T13:38:12.956Z,195
2018-02-22T13:39:12.924Z,195
2018-02-22T13:40:12.935Z,190
2018-02-22T13:41:12.891Z,195
2018-02-22T13:42:12.142Z,200
2018-02-22T13:43:12.611Z,210
2018-02-22T13:44:12.884Z,220
2018-02-22T13:45:12.900Z,225
2018-02-22T13:46:12.848Z,225
2018-02-22T13:47:12.568Z,225
2018-02-22T13:48:12.806Z,215
2018-02-22T13:49:12.819Z,220
2018-02-22T13:50:12.795Z,230
2018-02-22T13:51:12.527Z,235
2018-02-22T13:52:12.768Z,230
2018-02-22T13:53:12.639Z,220
2018-02-22T13:54:12.480Z,220
2018-02-22T13:55:12.489Z,200
2018-02-22T13:56:12.723Z,180
2018-02-22T13:57:12.454Z,175
2018-02-22T13:58:12.695Z,180
2018-02-22T13:59:13.037Z,180
2018-02-22T14:00:12.680Z,180
2018-02-22T14:01:12.648Z,180
2018-02-22T14:02:12.644Z,175
2018-02-22T14:03:12.367Z,170
2018-02-22T14:04:12.609Z,170
2018-02-22T14:05:12.076Z,170
2018-02-22T14:06:12.320Z,170
2018-02-22T14:07:12.570Z,170
2018-02-22T14:08:12.595Z,170
2018-02-22T14:09:12.552Z,170
2018-02-22T14:10:12.025Z,180
2018-02-22T14:11:12.262Z,180
2018-02-22T14:12:11.996Z,180
2018-02-22T14:13:12.502Z,180
2018-02-22T14:14:12.225Z,190
2018-02-22T14:15:12.225Z,195
2018-02-22T14:16:12.203Z,200
2018-02-22T14:17:12.577Z,200
2018-02-22T14:18:12.451Z,200
2018-02-22T14:19:12.425Z,195
2018-02-22T14:20:12.406Z,185
2018-02-22T14:21:12.402Z,180
2018-02-22T14:22:12.382Z,175
2018-02-22T14:23:12.389Z,175
2018-02-22T14:24:12.352Z,175
2018-02-22T14:25:12.356Z,175
2018-02-22T14:26:12.065Z,175
2018-02-22T14:27:12.335Z,175
2018-02-22T14:28:11.797Z,180
2018-02-22T14:29:12.345Z,185
2018-02-22T14:30:12.041Z,190
2018-02-22T14:31:12.258Z,195
2018-02-22T14:32:12.015Z,195
2018-02-22T14:33:12.263Z,195
2018-02-22T14:34:12.227Z,190
2018-02-22T14:35:12.235Z,190
2018-02-22T14:36:11.950Z,190
2018-02-22T14:37:11.928Z,190
2018-02-22T14:38:12.176Z,190
2018-02-22T14:39:11.894Z,190
2018-02-22T14:40:12.154Z,190
2018-02-22T14:41:11.876Z,190
2018-02-22T14:42:11.595Z,190
2018-02-22T14:43:12.115Z,190
2018-02-22T14:44:11.829Z,190
2018-02-22T14:45:11.857Z,185
2018-02-22T14:46:12.133Z,185
2018-02-22T14:47:12.084Z,185
2018-02-22T14:48:12.044Z,185
2018-02-22T14:49:11.272Z,180
2018-02-22T14:50:11.504Z,180
2018-02-22T14:51:12.029Z,180
2018-02-22T14:52:11.470Z,180
2018-02-22T14:53:11.966Z,175
2018-02-22T14:54:11.711Z,170
2018-02-22T14:55:11.950Z,165
2018-02-22T14:56:11.943Z,160
2018-02-22T14:57:11.679Z,160
2018-02-22T14:58:11.896Z,155
2018-02-22T14:59:11.662Z,155
2018-02-22T15:00:11.893Z,150
2018-02-22T15:01:11.878Z,150
2018-02-22T15:02:12.112Z,150
2018-02-22T15:03:11.902Z,145
2018-02-22T15:04:11.818Z,140
2018-02-22T15:05:11.814Z,135
2018-02-22T15:06:11.543Z,130
2018-02-22T15:07:11.809Z,125
2018-02-22T15:08:11.261Z,120
2018-02-22T15:09:11.511Z,115
2018-02-22T15:10:11.754Z,110
2018-02-22T15:11:11.740Z,110
2018-02-22T15:12:11.450Z,105
2018-02-22T15:13:11.459Z,105
2018-02-22T15:14:11.442Z,100
2018-02-22T15:15:11.423Z,100
2018-02-22T15:16:11.133Z,90
2018-02-22T15:17:11.652Z,85
2018-02-22T15:18:11.640Z,80
2018-02-22T15:19:11.629Z,70
2018-02-22T15:20:11.635Z,70
2018-02-22T15:21:11.075Z,65
2018-02-22T15:22:11.343Z,60
2018-02-22T15:23:11.579Z,60
2018-02-22T15:24:11.297Z,60
2018-02-22T15:25:11.299Z,60
2018-02-22T15:26:11.276Z,60
2018-02-22T15:27:11.568Z,60
2018-02-22T15:28:11.247Z,65
2018-02-22T15:29:11.493Z,70
2018-02-22T15:30:11.205Z,70
2018-02-22T15:31:11.471Z,75
2018-02-22T15:32:11.445Z,75
2018-02-22T15:33:11.427Z,75
2018-02-22T15:34:11.420Z,75
2018-02-22T15:35:11.418Z,75
2018-02-22T15:36:11.396Z,80
2018-02-22T15:37:11.122Z,80
2018-02-22T15:38:11.378Z,80
2018-02-22T15:39:11.199Z,75
2018-02-22T15:40:10.812Z,75
2018-02-22T15:41:11.064Z,75
2018-02-22T15:42:11.043Z,75
2018-02-22T15:43:11.303Z,70
2018-02-22T15:44:11.288Z,70
2018-02-22T15:45:11.026Z,70
2018-02-22T15:46:11.008Z,65
2018-02-22T15:47:11.245Z,65
2018-02-22T15:48:10.977Z,65
2018-02-22T15:49:11.205Z,65
2018-02-22T15:50:10.948Z,65
2018-02-22T15:51:11.194Z,60
2018-02-22T15:52:11.180Z,60
2018-02-22T15:53:11.179Z,60
2018-02-22T15:54:11.217Z,55
2018-02-22T15:55:11.181Z,55
2018-02-22T15:56:11.130Z,55
2018-02-22T15:57:11.102Z,55
2018-02-22T15:58:11.096Z,50
2018-02-22T15:59:10.835Z,50
2018-02-22T16:00:11.102Z,50
2018-02-22T16:01:10.531Z,50
2018-02-22T16:02:10.791Z,50
2018-02-22T16:03:11.052Z,45
2018-02-22T16:04:11.030Z,45
2018-02-22T16:05:10.993Z,45
2018-02-22T16:06:10.731Z,40
2018-02-22T16:07:10.973Z,40
2018-02-22T16:08:10.689Z,40
2018-02-22T16:09:10.937Z,35
2018-02-22T16:10:10.694Z,35
2018-02-22T16:11:10.917Z,30
2018-02-22T16:12:10.625Z,30
2018-02-22T16:13:10.904Z,30
2018-02-22T16:14:10.969Z,30
2018-02-22T16:15:10.587Z,25
2018-02-22T16:16:10.602Z,25
2018-02-22T16:17:10.591Z,25
2018-02-22T16:18:10.284Z,20
2018-02-22T16:19:10.539Z,20
2018-02-22T16:20:10.795Z,20
2018-02-22T16:21:10.759Z,20
2018-02-22T16:22:09.967Z,15